Time;durP1;ratioP1;P1;durP2;ratioP2;P2;SDS_P1;SDS_P2;PMS_P1;PMS_P2;Temp;Humidity;BMP_temperature;BMP_pressure;BME280_temperature;BME280_humidity;BME280_pressure;Samples;Min_cycle;Max_cycle;Signal;HPM_P1;HPM_P2
2022/05/17 00:00:43;;;;;;;4.72;3.03;;;21.80;59.80;;;;;;4476090;32;20155;-84
2022/05/17 00:03:09;;;;;;;5.28;3.03;;;21.80;59.70;;;;;;4476432;32;20089;-84
2022/05/17 00:05:35;;;;;;;6.43;3.00;;;21.80;59.80;;;;;;4476268;32;20364;-84
2022/05/17 00:08:01;;;;;;;5.68;3.28;;;21.80;59.80;;;;;;4476487;32;20080;-84
2022/05/17 00:10:27;;;;;;;5.50;3.08;;;21.80;60.70;;;;;;4476304;32;20499;-84
2022/05/17 00:12:54;;;;;;;5.57;3.00;;;21.80;59.70;;;;;;4476517;32;20081;-84
2022/05/17 00:15:20;;;;;;;6.38;2.60;;;21.70;59.70;;;;;;4476290;32;20062;-84
2022/05/17 00:17:48;;;;;;;5.47;3.10;;;21.80;59.70;;;;;;4475889;32;20168;-84
2022/05/17 00:20:15;;;;;;;5.38;3.00;;;21.70;59.70;;;;;;4476174;32;20091;-84
2022/05/17 00:22:42;;;;;;;4.28;2.67;;;21.70;59.70;;;;;;4475103;32;20083;-84
2022/05/17 00:25:08;;;;;;;5.40;3.00;;;21.70;59.70;;;;;;4475789;32;20090;-85
2022/05/17 00:27:35;;;;;;;6.20;3.13;;;21.70;59.70;;;;;;4475102;32;20084;-84
2022/05/17 00:30:01;;;;;;;5.88;2.90;;;21.70;59.70;;;;;;4476016;32;20130;-84
2022/05/17 00:32:27;;;;;;;6.07;3.08;;;21.70;59.70;;;;;;4476119;32;20089;-83
2022/05/17 00:34:53;;;;;;;4.75;2.80;;;21.70;59.60;;;;;;4476330;32;20085;-84
2022/05/17 00:37:20;;;;;;;6.07;3.10;;;21.70;59.70;;;;;;4476088;32;20406;-84
2022/05/17 00:39:46;;;;;;;4.47;2.65;;;21.70;59.60;;;;;;4476035;32;20113;-84
2022/05/17 00:42:11;;;;;;;3.63;2.70;;;21.70;60.50;;;;;;4474754;32;20084;-84
2022/05/17 00:44:43;;;;;;;3.95;2.78;;;21.70;59.60;;;;;;4475915;32;20077;-85
2022/05/17 00:47:29;;;;;;;3.33;2.05;;;21.70;59.60;;;;;;4476079;32;20532;-83
2022/05/17 00:50:11;;;;;;;6.45;2.72;;;21.70;59.50;;;;;;4475643;32;20384;-84
2022/05/17 00:52:41;;;;;;;4.00;2.63;;;21.70;59.40;;;;;;4476089;32;20109;-84
2022/05/17 00:55:17;;;;;;;5.82;2.40;;;21.70;59.50;;;;;;4476217;32;20097;-84
2022/05/17 00:57:49;;;;;;;4.47;2.58;;;21.60;59.40;;;;;;4476323;32;20077;-85
2022/05/17 01:00:19;;;;;;;4.13;2.83;;;21.70;59.50;;;;;;4476083;32;20085;-85
2022/05/17 01:02:49;;;;;;;5.57;2.80;;;21.70;59.50;;;;;;4475929;32;20185;-85
2022/05/17 01:05:16;;;;;;;4.90;2.92;;;21.70;59.50;;;;;;4477699;32;20077;-84
2022/05/17 01:07:47;;;;;;;3.78;2.40;;;21.70;59.50;;;;;;4479031;31;20167;-84
2022/05/17 01:10:14;;;;;;;4.63;2.45;;;21.70;59.40;;;;;;4478582;31;20514;-84
2022/05/17 01:12:40;;;;;;;4.95;2.40;;;21.60;59.40;;;;;;4478685;31;20100;-85
2022/05/17 01:15:09;;;;;;;3.95;2.30;;;21.60;59.40;;;;;;4478398;31;20542;-85
2022/05/17 01:17:37;;;;;;;4.30;2.58;;;21.60;59.40;;;;;;4478579;31;20081;-85
2022/05/17 01:20:07;;;;;;;5.60;2.50;;;21.60;59.40;;;;;;4477570;32;20545;-84
2022/05/17 01:22:33;;;;;;;6.63;2.70;;;21.60;59.30;;;;;;4478561;31;20112;-84
2022/05/17 01:24:59;;;;;;;4.38;2.85;;;21.60;59.30;;;;;;4478791;31;20199;-85
2022/05/17 01:27:32;;;;;;;5.03;2.70;;;21.60;59.30;;;;;;4478501;31;20087;-84
2022/05/17 01:29:58;;;;;;;3.50;2.40;;;21.60;59.30;;;;;;4478365;31;20494;-85
2022/05/17 01:32:24;;;;;;;3.63;2.25;;;21.60;59.30;;;;;;4478983;32;20229;-85
2022/05/17 01:34:50;;;;;;;4.68;2.47;;;21.60;59.30;;;;;;4477070;32;20308;-85
2022/05/17 01:37:18;;;;;;;3.95;2.20;;;21.60;59.30;;;;;;4478358;31;20536;-85
2022/05/17 01:39:47;;;;;;;2.65;2.08;;;21.60;59.30;;;;;;4478608;31;20604;-85
2022/05/17 01:42:15;;;;;;;5.35;2.50;;;21.60;59.30;;;;;;4478356;31;20085;-85
2022/05/17 01:44:43;;;;;;;3.78;2.38;;;21.60;59.30;;;;;;4477852;32;20085;-85
2022/05/17 01:47:11;;;;;;;4.25;2.53;;;21.60;59.30;;;;;;4476773;32;20528;-85
2022/05/17 01:49:37;;;;;;;4.88;2.58;;;21.60;59.20;;;;;;4477645;31;20543;-85
2022/05/17 01:52:03;;;;;;;4.28;2.38;;;21.50;59.20;;;;;;4478076;32;20087;-85
2022/05/17 01:54:29;;;;;;;3.35;2.22;;;21.50;59.20;;;;;;4478026;32;20418;-85
2022/05/17 01:56:55;;;;;;;5.32;2.47;;;21.50;59.20;;;;;;4477971;32;20503;-85
2022/05/17 01:59:21;;;;;;;3.60;2.30;;;21.50;59.20;;;;;;4478020;31;20074;-85
2022/05/17 02:01:47;;;;;;;5.05;2.80;;;21.50;59.20;;;;;;4476854;32;20084;-84
2022/05/17 02:04:13;;;;;;;3.78;2.25;;;21.50;59.20;;;;;;4477562;32;20065;-84
2022/05/17 02:06:39;;;;;;;3.90;2.45;;;21.50;59.10;;;;;;4477839;31;20135;-85
2022/05/17 02:09:05;;;;;;;3.35;2.08;;;21.50;59.10;;;;;;4478123;31;20073;-85
2022/05/17 02:11:31;;;;;;;2.70;1.92;;;21.50;59.10;;;;;;4476682;32;20070;-84
2022/05/17 02:13:58;;;;;;;4.63;2.30;;;21.50;59.10;;;;;;4476446;32;20219;-84
2022/05/17 02:16:23;;;;;;;3.22;2.38;;;21.50;59.10;;;;;;4477252;31;20072;-85
2022/05/17 02:18:50;;;;;;;4.70;2.15;;;21.50;59.10;;;;;;4477675;31;20155;-85
2022/05/17 02:21:16;;;;;;;3.05;2.28;;;21.50;59.10;;;;;;4476684;32;20277;-85
2022/05/17 02:23:42;;;;;;;3.95;2.75;;;21.50;59.10;;;;;;4477581;32;20414;-85
2022/05/17 02:26:08;;;;;;;3.40;2.00;;;21.50;59.10;;;;;;4477906;31;20466;-85
2022/05/17 02:28:35;;;;;;;4.20;2.38;;;21.50;59.10;;;;;;4477409;31;20062;-85
2022/05/17 02:31:02;;;;;;;3.28;2.13;;;21.50;59.10;;;;;;4477284;32;20095;-84
2022/05/17 02:33:27;;;;;;;2.67;1.98;;;21.50;59.10;;;;;;4477607;31;20510;-85
2022/05/17 02:35:53;;;;;;;3.80;2.35;;;21.50;59.10;;;;;;4477519;32;20131;-85
2022/05/17 02:38:20;;;;;;;2.88;2.10;;;21.50;59.10;;;;;;4477296;31;20077;-85
2022/05/17 02:40:46;;;;;;;3.92;2.22;;;21.50;59.10;;;;;;4477691;32;20112;-85
2022/05/17 02:43:13;;;;;;;3.80;2.15;;;21.40;59.00;;;;;;4477033;32;20147;-84
2022/05/17 02:45:40;;;;;;;3.08;2.20;;;21.50;59.00;;;;;;4477607;31;20151;-85
2022/05/17 02:48:06;;;;;;;2.85;2.00;;;21.50;59.00;;;;;;4476942;31;20105;-84
2022/05/17 02:50:32;;;;;;;2.80;2.08;;;21.40;59.00;;;;;;4477316;31;20087;-84
2022/05/17 02:52:58;;;;;;;3.88;2.30;;;21.40;59.00;;;;;;4477211;32;20398;-84
2022/05/17 02:55:24;;;;;;;3.65;2.15;;;21.40;58.90;;;;;;4477242;31;20073;-85
2022/05/17 02:57:50;;;;;;;3.75;2.10;;;21.40;59.00;;;;;;4477154;31;20370;-84
2022/05/17 03:00:17;;;;;;;2.67;1.73;;;21.40;59.00;;;;;;4476888;31;20077;-84
2022/05/17 03:02:44;;;;;;;2.67;2.08;;;21.40;58.90;;;;;;4476834;31;20434;-84
2022/05/17 03:05:11;;;;;;;3.53;2.15;;;21.40;58.90;;;;;;4476698;31;20507;-84
2022/05/17 03:07:40;;;;;;;3.05;2.03;;;21.40;58.90;;;;;;4477012;32;20410;-84
2022/05/17 03:10:07;;;;;;;3.53;1.98;;;21.40;58.90;;;;;;4476704;32;20121;-84
2022/05/17 03:12:33;;;;;;;5.38;2.20;;;21.40;58.90;;;;;;4477162;31;20073;-83
2022/05/17 03:15:00;;;;;;;4.25;2.08;;;21.40;58.90;;;;;;4476882;32;20162;-84
2022/05/17 03:17:26;;;;;;;2.33;1.80;;;21.40;58.90;;;;;;4476532;32;20085;-84
2022/05/17 03:19:54;;;;;;;3.20;1.80;;;21.40;58.90;;;;;;4477077;32;20159;-84
2022/05/17 03:22:19;;;;;;;3.15;1.83;;;21.40;58.90;;;;;;4477126;32;20611;-83
2022/05/17 03:24:45;;;;;;;3.38;2.03;;;21.40;58.90;;;;;;4476421;32;20066;-84
2022/05/17 03:27:11;;;;;;;2.95;1.83;;;21.40;58.90;;;;;;4476686;32;20380;-83
2022/05/17 03:29:37;;;;;;;3.30;2.22;;;21.40;58.90;;;;;;4475594;32;20085;-83
2022/05/17 03:32:03;;;;;;;4.32;2.50;;;21.40;58.80;;;;;;4476904;32;20080;-84
2022/05/17 03:34:30;;;;;;;3.63;2.00;;;21.30;58.80;;;;;;4475501;32;20206;-84
2022/05/17 03:36:56;;;;;;;2.75;1.80;;;21.30;58.80;;;;;;4476596;31;20069;-85
2022/05/17 03:39:22;;;;;;;3.42;1.90;;;21.30;58.80;;;;;;4476533;31;20081;-85
2022/05/17 03:41:48;;;;;;;2.55;1.80;;;21.40;58.80;;;;;;4476599;32;20514;-85
2022/05/17 03:44:15;;;;;;;2.33;1.77;;;21.30;58.70;;;;;;4476270;31;20094;-84
2022/05/17 03:46:40;;;;;;;3.20;1.70;;;21.30;58.80;;;;;;4476387;32;20145;-85
2022/05/17 03:49:06;;;;;;;3.50;2.05;;;21.30;58.80;;;;;;4476367;32;20219;-84
2022/05/17 03:51:32;;;;;;;2.35;1.80;;;21.30;59.70;;;;;;4462627;32;20123;-84
2022/05/17 03:53:58;;;;;;;2.20;1.60;;;21.30;58.80;;;;;;4476288;32;20203;-84
2022/05/17 03:56:23;;;;;;;2.97;1.90;;;21.30;58.70;;;;;;4476476;31;20517;-84
2022/05/17 03:58:49;;;;;;;3.05;1.80;;;21.30;58.70;;;;;;4476435;31;20065;-84
2022/05/17 04:01:16;;;;;;;3.53;2.05;;;21.30;58.70;;;;;;4476645;32;20077;-84
2022/05/17 04:03:43;;;;;;;3.20;1.85;;;21.30;58.70;;;;;;4475207;32;20057;-83
2022/05/17 04:06:09;;;;;;;3.08;1.77;;;21.30;59.70;;;;;;4476307;32;20073;-84
2022/05/17 04:08:36;;;;;;;3.38;1.70;;;21.30;58.70;;;;;;4476281;32;20081;-84
2022/05/17 04:11:06;;;;;;;3.47;2.10;;;21.30;59.50;;;;;;4476039;32;20132;-84
2022/05/17 04:13:32;;;;;;;2.78;1.60;;;21.30;58.70;;;;;;4476345;32;20133;-84
2022/05/17 04:15:59;;;;;;;3.80;1.90;;;21.30;58.70;;;;;;4476251;32;20078;-84
2022/05/17 04:18:26;;;;;;;3.00;1.67;;;21.30;58.70;;;;;;4474836;32;20089;-84
2022/05/17 04:21:00;;;;;;;2.25;1.55;;;21.30;58.70;;;;;;4476486;32;20219;-84
2022/05/17 04:23:26;;;;;;;2.92;1.90;;;21.30;58.70;;;;;;4476335;32;20471;-84
2022/05/17 04:25:52;;;;;;;2.67;1.55;;;21.30;58.70;;;;;;4476155;32;20171;-82
2022/05/17 04:28:18;;;;;;;2.42;1.70;;;21.20;58.60;;;;;;4476117;32;20078;-82
2022/05/17 04:30:44;;;;;;;3.65;1.67;;;21.30;58.70;;;;;;4476095;32;20077;-82
2022/05/17 04:33:11;;;;;;;2.75;1.90;;;21.30;58.70;;;;;;4476331;32;20142;-81
2022/05/17 04:35:37;;;;;;;2.75;1.63;;;21.20;58.70;;;;;;4476321;32;20101;-82
2022/05/17 04:38:03;;;;;;;2.75;1.90;;;21.20;58.70;;;;;;4475678;32;20080;-81
2022/05/17 04:40:29;;;;;;;3.30;1.88;;;21.20;58.60;;;;;;4477911;32;20608;-81
2022/05/17 04:42:57;;;;;;;3.70;2.00;;;21.20;58.60;;;;;;4479122;31;20061;-82
2022/05/17 04:45:23;;;;;;;3.03;1.70;;;21.20;58.60;;;;;;4479349;31;20096;-82
2022/05/17 04:47:49;;;;;;;2.45;1.60;;;21.20;58.60;;;;;;4478989;32;20135;-82
2022/05/17 04:50:18;;;;;;;2.97;1.65;;;21.30;58.60;;;;;;4478837;32;20089;-82
2022/05/17 04:52:47;;;;;;;2.22;1.63;;;21.20;58.60;;;;;;4464965;32;20070;-81
2022/05/17 04:55:15;;;;;;;3.78;1.60;;;21.20;58.60;;;;;;4479184;31;20093;-80
2022/05/17 04:57:41;;;;;;;3.53;1.67;;;21.20;58.60;;;;;;4478941;31;20065;-81
2022/05/17 05:00:11;;;;;;;2.35;1.55;;;21.20;58.60;;;;;;4478895;32;20124;-82
2022/05/17 05:02:37;;;;;;;2.78;1.75;;;21.20;58.50;;;;;;4479124;31;20121;-81
2022/05/17 05:05:07;;;;;;;2.20;1.45;;;21.30;58.60;;;;;;4477711;32;20089;-81
2022/05/17 05:07:33;;;;;;;2.38;1.65;;;21.30;58.60;;;;;;4477746;32;20096;-81
2022/05/17 05:09:58;;;;;;;2.70;1.63;;;21.20;58.50;;;;;;4478682;31;20073;-80
2022/05/17 05:12:25;;;;;;;2.35;1.40;;;21.30;58.60;;;;;;4478735;31;20061;-81
2022/05/17 05:14:50;;;;;;;2.58;1.60;;;21.20;58.50;;;;;;4478671;31;20100;-81
2022/05/17 05:17:16;;;;;;;3.03;1.42;;;21.20;58.50;;;;;;4478576;31;20113;-77
2022/05/17 05:19:42;;;;;;;4.40;1.40;;;21.30;58.50;;;;;;4478531;31;20080;-77
2022/05/17 05:22:08;;;;;;;2.92;1.80;;;21.20;58.60;;;;;;4478742;31;20092;-78
2022/05/17 05:24:35;;;;;;;3.97;1.60;;;21.20;58.60;;;;;;4478578;31;20088;-78
2022/05/17 05:27:01;;;;;;;5.20;1.80;;;21.20;58.60;;;;;;4464359;32;20471;-77
2022/05/17 05:29:26;;;;;;;4.63;1.98;;;21.20;58.70;;;;;;4478385;31;20112;-78
2022/05/17 05:31:52;;;;;;;5.78;1.90;;;21.30;58.80;;;;;;4478347;31;20070;-77
2022/05/17 05:34:18;;;;;;;4.47;1.95;;;21.30;58.90;;;;;;4478338;31;20084;-78
2022/05/17 05:36:46;;;;;;;5.18;2.13;;;21.30;59.10;;;;;;4478259;32;20621;-75
2022/05/17 05:39:11;;;;;;;5.45;2.20;;;21.30;59.30;;;;;;4478203;31;20090;-78
2022/05/17 05:41:38;;;;;;;7.03;2.33;;;21.30;59.40;;;;;;4477913;31;20081;-78
2022/05/17 05:44:04;;;;;;;5.30;2.20;;;21.30;59.50;;;;;;4478094;32;20075;-79
2022/05/17 05:46:30;;;;;;;7.43;1.95;;;21.30;59.40;;;;;;4477780;31;20227;-77
2022/05/17 05:48:56;;;;;;;6.40;2.40;;;21.40;59.50;;;;;;4476502;32;20154;-77
2022/05/17 05:51:21;;;;;;;5.95;2.20;;;21.30;59.50;;;;;;4477463;31;20085;-77
2022/05/17 05:53:47;;;;;;;6.75;2.45;;;21.40;59.50;;;;;;4476962;32;20085;-77
2022/05/17 05:56:13;;;;;;;6.95;2.22;;;21.40;59.60;;;;;;4476897;32;20505;-77
2022/05/17 05:58:42;;;;;;;7.72;2.30;;;21.40;59.60;;;;;;4478126;32;20073;-75
2022/05/17 06:01:08;;;;;;;6.32;2.38;;;21.40;60.40;;;;;;4477879;31;20096;-75
2022/05/17 06:03:35;;;;;;;8.68;2.33;;;21.40;59.60;;;;;;4476721;32;20070;-76
2022/05/17 06:06:03;;;;;;;8.27;2.65;;;21.50;59.70;;;;;;4477853;31;20239;-75
2022/05/17 06:08:28;;;;;;;6.78;2.15;;;21.50;59.70;;;;;;4477754;31;20077;-75
2022/05/17 06:10:56;;;;;;;7.18;2.20;;;21.50;59.70;;;;;;4477784;31;20151;-76
2022/05/17 06:13:22;;;;;;;10.15;2.40;;;21.50;59.70;;;;;;4477699;32;20085;-76
2022/05/17 06:15:51;;;;;;;5.28;2.03;;;21.50;59.80;;;;;;4477413;31;20085;-76
2022/05/17 06:18:16;;;;;;;8.85;2.55;;;21.50;59.70;;;;;;4477581;31;20093;-76
2022/05/17 06:20:49;;;;;;;6.53;1.85;;;21.50;59.80;;;;;;4477360;31;20092;-76
2022/05/17 06:23:15;;;;;;;7.20;2.47;;;21.60;59.80;;;;;;4477924;32;20497;-78
2022/05/17 06:25:41;;;;;;;6.85;2.03;;;21.60;59.90;;;;;;4477267;31;20073;-75
2022/05/17 06:28:07;;;;;;;8.40;2.35;;;21.60;60.00;;;;;;4477558;32;20227;-77
2022/05/17 06:30:33;;;;;;;9.60;2.60;;;21.70;60.00;;;;;;4477687;31;20066;-76
2022/05/17 06:33:01;;;;;;;13.25;2.72;;;21.60;60.00;;;;;;4477127;31;20097;-79
2022/05/17 06:35:27;;;;;;;8.55;2.42;;;21.70;60.00;;;;;;4477398;31;20090;-78
2022/05/17 06:37:53;;;;;;;7.70;2.45;;;21.70;60.00;;;;;;4477571;31;20642;-74
2022/05/17 06:40:19;;;;;;;12.20;2.15;;;21.70;60.10;;;;;;4476252;32;20154;-76
2022/05/17 06:42:46;;;;;;;9.80;2.30;;;21.70;60.10;;;;;;4477336;31;20537;-79
2022/05/17 06:45:12;;;;;;;8.40;2.47;;;21.80;60.30;;;;;;4476124;32;20069;-79
2022/05/17 06:47:40;;;;;;;6.35;2.40;;;21.80;60.30;;;;;;4475910;32;20216;-78
2022/05/17 06:50:07;;;;;;;7.60;2.13;;;21.80;60.30;;;;;;4476555;32;20134;-78
2022/05/17 06:52:32;;;;;;;5.90;2.10;;;21.80;60.30;;;;;;4476975;31;20199;-77
2022/05/17 06:54:58;;;;;;;18.63;2.60;;;21.90;60.30;;;;;;4477036;31;20079;-73
2022/05/17 06:57:24;;;;;;;6.65;2.30;;;21.90;60.40;;;;;;4477020;31;20234;-73
2022/05/17 06:59:50;;;;;;;7.05;2.17;;;21.90;60.50;;;;;;4476880;31;20089;-72
2022/05/17 07:02:16;;;;;;;8.13;2.10;;;21.90;60.40;;;;;;4476864;32;20387;-71
2022/05/17 07:04:42;;;;;;;10.73;2.35;;;22.00;60.40;;;;;;4476903;31;20073;-70
2022/05/17 07:07:08;;;;;;;8.25;2.33;;;22.00;60.20;;;;;;4476966;32;20197;-72
2022/05/17 07:09:36;;;;;;;9.43;2.30;;;22.00;61.00;;;;;;4476585;31;20510;-69
2022/05/17 07:14:46;;;;;;;7.38;1.77;;;22.00;60.10;;;;;;4476836;32;20093;-70
2022/05/17 07:17:15;;;;;;;8.13;2.33;;;22.10;60.10;;;;;;4476660;32;20081;-72
2022/05/17 07:19:42;;;;;;;13.23;2.75;;;22.10;60.10;;;;;;4476702;31;20087;-70
2022/05/17 07:22:08;;;;;;;9.45;2.65;;;22.10;60.00;;;;;;4476477;31;20100;-68
2022/05/17 07:24:36;;;;;;;10.13;2.28;;;22.20;60.00;;;;;;4476627;31;20065;-69
2022/05/17 07:27:04;;;;;;;10.27;2.08;;;22.20;60.00;;;;;;4476621;32;20239;-70
2022/05/17 07:29:30;;;;;;;9.07;2.10;;;22.20;59.90;;;;;;4476787;32;20199;-70
2022/05/17 07:31:56;;;;;;;8.80;1.95;;;22.20;59.80;;;;;;4476402;32;20066;-71
2022/05/17 07:34:21;;;;;;;7.53;1.65;;;22.20;59.70;;;;;;4476244;32;20081;-71
2022/05/17 07:36:48;;;;;;;7.93;1.60;;;22.30;59.60;;;;;;4476788;32;20542;-71
2022/05/17 07:39:14;;;;;;;8.25;1.75;;;22.30;59.50;;;;;;4476493;31;20088;-71
2022/05/17 07:41:41;;;;;;;7.50;1.80;;;22.30;59.40;;;;;;4476354;32;20069;-71
2022/05/17 07:44:09;;;;;;;7.78;1.95;;;22.40;59.30;;;;;;4476308;32;20085;-71
2022/05/17 07:46:35;;;;;;;11.77;2.60;;;22.40;59.30;;;;;;4476354;31;20518;-71
2022/05/17 07:49:02;;;;;;;8.90;1.70;;;22.40;59.20;;;;;;4476332;31;20183;-72
2022/05/17 07:51:28;;;;;;;9.50;2.25;;;22.50;59.10;;;;;;4476017;32;20125;-74
2022/05/17 07:53:54;;;;;;;9.48;2.13;;;22.50;59.20;;;;;;4476483;31;20065;-72
2022/05/17 07:56:20;;;;;;;8.23;1.85;;;22.50;59.20;;;;;;4476003;31;20092;-71
2022/05/17 07:58:46;;;;;;;6.93;1.95;;;22.60;59.00;;;;;;4476250;32;20128;-72
2022/05/17 08:01:12;;;;;;;6.05;1.70;;;22.60;58.90;;;;;;4475815;31;20073;-71
2022/05/17 08:03:38;;;;;;;8.75;2.17;;;22.60;58.90;;;;;;4475372;31;20112;-71
2022/05/17 08:06:05;;;;;;;6.93;2.00;;;22.60;59.00;;;;;;4473512;32;20486;-71
2022/05/17 08:08:30;;;;;;;10.02;2.30;;;22.50;58.80;;;;;;4475881;32;20081;-71
2022/05/17 08:10:56;;;;;;;9.73;2.28;;;22.50;58.80;;;;;;4476110;32;20136;-71
2022/05/17 08:13:24;;;;;;;7.80;2.25;;;22.50;58.90;;;;;;4475992;32;20129;-71
2022/05/17 08:15:50;;;;;;;8.68;2.42;;;22.50;58.90;;;;;;4474473;32;20088;-70
2022/05/17 08:18:17;;;;;;;7.53;1.80;;;22.50;59.00;;;;;;4476086;32;20081;-70
2022/05/17 08:20:44;;;;;;;6.43;2.10;;;22.50;58.90;;;;;;4476108;32;20077;-71
2022/05/17 08:23:10;;;;;;;11.68;2.63;;;22.50;58.80;;;;;;4476167;32;20617;-70
2022/05/17 08:28:20;;;;;;;8.82;2.17;;;22.50;58.80;;;;;;4476342;32;20081;-70
2022/05/17 08:30:47;;;;;;;8.48;1.80;;;22.40;58.70;;;;;;4476212;32;20147;-71
2022/05/17 08:33:15;;;;;;;8.43;2.28;;;22.40;58.70;;;;;;4475993;32;20070;-71
2022/05/17 08:35:50;;;;;;;7.95;2.17;;;22.40;58.80;;;;;;4475734;32;20093;-69
2022/05/17 08:38:27;;;;;;;7.22;1.95;;;22.40;58.80;;;;;;4476120;32;20132;-69
2022/05/17 08:41:28;;;;;;;8.55;2.05;;;22.40;58.80;;;;;;4476190;32;20097;-70
2022/05/17 08:44:04;;;;;;;8.25;2.33;;;22.40;59.30;;;;;;4476020;32;20088;-69
2022/05/17 08:47:11;;;;;;;6.55;2.03;;;22.40;59.40;;;;;;4475939;32;20085;-70
2022/05/17 08:49:47;;;;;;;7.45;2.00;;;22.50;59.70;;;;;;4475839;32;20215;-70
2022/05/17 08:52:17;;;;;;;8.13;2.15;;;22.50;59.70;;;;;;4474723;32;20511;-70
2022/05/17 08:54:50;;;;;;;13.73;2.45;;;22.50;59.70;;;;;;4475922;32;20117;-70
2022/05/17 08:57:46;;;;;;;11.35;3.03;;;22.50;59.80;;;;;;4476473;32;20073;-69
2022/05/17 09:00:27;;;;;;;9.48;2.80;;;22.50;59.80;;;;;;4476171;32;20065;-70
2022/05/17 09:03:00;;;;;;;14.82;3.17;;;22.60;59.80;;;;;;4476489;32;20087;-69
2022/05/17 09:05:29;;;;;;;10.43;2.40;;;22.60;59.70;;;;;;4475886;32;20232;-69
2022/05/17 09:08:16;;;;;;;11.73;3.50;;;22.60;59.60;;;;;;4475817;32;20096;-70
2022/05/17 09:10:46;;;;;;;12.93;2.95;;;22.60;59.40;;;;;;4475948;32;20073;-71
2022/05/17 09:13:23;;;;;;;10.48;3.28;;;22.60;59.30;;;;;;4475891;32;20085;-73
2022/05/17 09:15:51;;;;;;;14.20;2.90;;;22.70;59.20;;;;;;4476064;32;20167;-73
2022/05/17 09:18:18;;;;;;;13.70;2.97;;;22.70;59.10;;;;;;4475863;32;20070;-72
2022/05/17 09:20:45;;;;;;;9.93;2.95;;;22.70;59.00;;;;;;4475655;32;20092;-72
2022/05/17 09:23:11;;;;;;;7.47;2.50;;;22.70;58.90;;;;;;4475569;32;20426;-72
2022/05/17 09:25:58;;;;;;;10.45;2.63;;;22.70;58.80;;;;;;4476416;32;20082;-72
2022/05/17 09:28:49;;;;;;;8.95;2.65;;;22.80;58.70;;;;;;4478668;31;20073;-71
2022/05/17 09:31:26;;;;;;;9.50;2.60;;;22.80;58.60;;;;;;4478161;31;20081;-73
2022/05/17 09:33:53;;;;;;;10.45;2.28;;;22.80;58.40;;;;;;4478416;31;20069;-68
2022/05/17 09:36:22;;;;;;;7.15;2.17;;;22.80;58.20;;;;;;4478306;31;20141;-71
2022/05/17 09:38:50;;;;;;;12.85;2.08;;;22.90;58.20;;;;;;4478316;32;20182;-71
2022/05/17 09:41:21;;;;;;;9.38;2.00;;;22.90;58.00;;;;;;4478524;32;20526;-71
2022/05/17 09:44:05;;;;;;;9.25;1.92;;;23.00;57.80;;;;;;4478818;31;20620;-71
2022/05/17 09:46:35;;;;;;;10.80;1.73;;;23.00;57.60;;;;;;4478416;31;20096;-71
2022/05/17 09:52:32;;;;;;;9.00;2.10;;;23.10;57.40;;;;;;4478249;32;20093;-72
2022/05/17 09:55:10;;;;;;;8.35;1.92;;;23.10;57.20;;;;;;4478049;31;20113;-71
2022/05/17 09:57:36;;;;;;;9.20;1.98;;;23.20;57.00;;;;;;4478104;32;20088;-71
2022/05/17 10:00:12;;;;;;;8.35;1.85;;;23.20;56.90;;;;;;4478240;31;20096;-71
2022/05/17 10:03:04;;;;;;;7.47;1.80;;;23.20;56.80;;;;;;4477933;31;20125;-71
2022/05/17 10:05:45;;;;;;;9.43;2.28;;;23.30;56.90;;;;;;4478042;31;20077;-71
2022/05/17 10:08:29;;;;;;;5.45;1.85;;;23.30;56.90;;;;;;4477960;31;20207;-71
2022/05/17 10:11:21;;;;;;;9.25;2.30;;;23.30;56.70;;;;;;4478129;31;20143;-70
2022/05/17 10:13:54;;;;;;;9.02;1.80;;;23.30;56.50;;;;;;4477935;32;20237;-71
2022/05/17 10:16:33;;;;;;;8.02;1.65;;;23.30;56.40;;;;;;4477802;31;20077;-71
2022/05/17 10:19:05;;;;;;;11.85;2.15;;;23.30;56.40;;;;;;4478160;31;20099;-71
2022/05/17 10:21:46;;;;;;;8.52;2.33;;;23.30;56.30;;;;;;4477550;31;20062;-71
2022/05/17 10:24:40;;;;;;;9.52;2.00;;;23.30;56.30;;;;;;4477575;31;20104;-71
2022/05/17 10:27:37;;;;;;;8.07;2.30;;;23.30;56.30;;;;;;4478060;31;20128;-71
2022/05/17 10:30:12;;;;;;;6.00;1.95;;;23.40;56.20;;;;;;4477374;32;20085;-70
2022/05/17 10:33:01;;;;;;;8.82;1.77;;;23.40;56.30;;;;;;4477700;31;20098;-70
2022/05/17 10:35:33;;;;;;;8.50;2.03;;;23.40;56.20;;;;;;4477633;32;20081;-70
2022/05/17 10:38:02;;;;;;;8.13;1.90;;;23.40;56.20;;;;;;4477251;31;20482;-70
2022/05/17 10:40:31;;;;;;;6.45;1.83;;;23.40;56.20;;;;;;4477140;31;20113;-70
2022/05/17 10:42:59;;;;;;;9.02;2.42;;;23.40;56.10;;;;;;4477195;31;20234;-71
2022/05/17 10:45:33;;;;;;;8.10;2.05;;;23.50;56.20;;;;;;4477252;31;20526;-71
2022/05/17 10:48:19;;;;;;;7.70;2.10;;;23.50;56.20;;;;;;4476922;31;20162;-71
2022/05/17 10:50:57;;;;;;;10.20;1.77;;;23.50;56.10;;;;;;4475836;32;20138;-71
2022/05/17 10:54:04;;;;;;;8.00;2.45;;;23.50;56.10;;;;;;4477039;31;20093;-71
2022/05/17 10:57:10;;;;;;;9.60;2.17;;;23.50;55.90;;;;;;4459876;32;20507;-71
2022/05/17 10:59:52;;;;;;;8.20;1.90;;;23.50;55.70;;;;;;4477380;31;20087;-68
2022/05/17 11:02:18;;;;;;;9.70;2.00;;;23.50;55.70;;;;;;4477123;32;20124;-72
2022/05/17 11:04:58;;;;;;;4.97;1.83;;;23.50;55.70;;;;;;4477171;31;20074;-71
2022/05/17 11:07:55;;;;;;;6.80;1.75;;;23.50;55.60;;;;;;4477090;31;20084;-71
2022/05/17 11:10:25;;;;;;;8.63;2.10;;;23.50;55.60;;;;;;4476737;31;20219;-71
2022/05/17 11:13:07;;;;;;;8.20;2.08;;;23.50;55.40;;;;;;4476613;31;20100;-71
2022/05/17 11:15:35;;;;;;;10.70;2.00;;;23.60;55.40;;;;;;4477198;32;20087;-71
2022/05/17 11:18:23;;;;;;;14.10;2.58;;;23.60;55.30;;;;;;4476714;32;20093;-71
2022/05/17 11:20:59;;;;;;;9.25;1.98;;;23.60;55.10;;;;;;4476691;32;20099;-72
2022/05/17 11:23:39;;;;;;;8.75;2.00;;;23.60;55.10;;;;;;4476980;31;20085;-71
2022/05/17 11:26:20;;;;;;;7.43;2.00;;;23.60;55.10;;;;;;4476827;31;20547;-69
2022/05/17 11:29:16;;;;;;;8.63;1.88;;;23.60;55.10;;;;;;4476783;31;20061;-69
2022/05/17 11:32:00;;;;;;;8.90;2.10;;;23.60;55.10;;;;;;4476744;31;20085;-71
2022/05/17 11:34:39;;;;;;;7.10;1.77;;;23.60;55.20;;;;;;4476652;32;20124;-71
2022/05/17 11:37:31;;;;;;;11.80;2.17;;;23.60;55.10;;;;;;4476890;31;20066;-71
2022/05/17 11:39:56;;;;;;;8.77;2.15;;;23.60;54.90;;;;;;4476516;31;20549;-72
2022/05/17 11:43:40;;;;;;;7.00;1.80;;;23.60;54.90;;;;;;4476484;32;20077;-71
2022/05/17 11:45:49;;;;;;;13.60;2.05;;;23.60;54.80;;;;;;4476371;32;20195;-71
2022/05/17 11:48:19;;;;;;;9.55;1.92;;;23.60;54.70;;;;;;4476348;31;20085;-71
2022/05/17 11:50:57;;;;;;;5.97;1.58;;;23.70;54.80;;;;;;4475849;32;20092;-70
2022/05/17 11:53:23;;;;;;;9.55;2.00;;;23.70;54.60;;;;;;4476715;31;20091;-70
2022/05/17 11:56:20;;;;;;;7.85;2.10;;;23.60;54.60;;;;;;4476943;32;20096;-74
2022/05/17 11:59:00;;;;;;;4.63;1.20;;;23.70;54.60;;;;;;4476161;32;20219;-71
2022/05/17 12:01:31;;;;;;;6.97;1.70;;;23.70;54.60;;;;;;4476626;32;20081;-71
2022/05/17 12:04:01;;;;;;;7.15;1.85;;;23.70;54.60;;;;;;4476083;32;20073;-70
2022/05/17 12:06:48;;;;;;;12.95;2.22;;;23.70;54.50;;;;;;4475967;32;20085;-70
2022/05/17 12:09:23;;;;;;;9.60;2.20;;;23.70;54.50;;;;;;4472983;32;20089;-72
2022/05/17 12:12:22;;;;;;;8.35;1.88;;;23.80;54.60;;;;;;4476325;32;20136;-70
2022/05/17 12:15:16;;;;;;;7.85;2.05;;;23.80;54.40;;;;;;4476181;32;20270;-70
2022/05/17 12:17:44;;;;;;;10.45;1.98;;;23.80;54.30;;;;;;4476434;32;20069;-70
2022/05/17 12:20:34;;;;;;;6.80;1.73;;;23.80;54.30;;;;;;4476365;32;20494;-70
2022/05/17 12:23:28;;;;;;;7.20;1.70;;;23.80;54.10;;;;;;4476462;32;20215;-69
2022/05/17 12:25:54;;;;;;;;;;;23.80;54.10;;;;;;4477122;32;20391;-70
2022/05/17 12:28:26;;;;;;;9.75;1.52;;;23.80;54.10;;;;;;4476358;32;20390;-71
2022/05/17 12:30:59;;;;;;;7.65;1.88;;;23.70;54.10;;;;;;4476410;32;20139;-70
2022/05/17 12:33:25;;;;;;;7.53;1.83;;;23.70;54.10;;;;;;4476485;32;20062;-70
2022/05/17 12:35:54;;;;;;;12.30;2.30;;;23.80;54.10;;;;;;4476065;32;20061;-70
2022/05/17 12:44:06;;;;;;;7.68;1.67;;;23.80;53.90;;;;;;4476240;32;20572;-70
2022/05/17 12:46:36;;;;;;;9.20;2.10;;;23.70;53.90;;;;;;4475950;32;20074;-71
2022/05/17 12:49:14;;;;;;;10.05;1.98;;;23.70;53.90;;;;;;4475806;32;20085;-71
2022/05/17 12:51:41;;;;;;;8.73;2.35;;;23.70;53.80;;;;;;4476279;32;20069;-71
2022/05/17 12:54:13;;;;;;;8.15;2.00;;;23.70;53.80;;;;;;4475890;32;20081;-70
2022/05/17 12:56:43;;;;;;;7.97;2.08;;;23.80;53.70;;;;;;4475878;32;20090;-70
2022/05/17 12:59:11;;;;;;;8.95;2.25;;;23.80;53.70;;;;;;4475761;32;20199;-71
2022/05/17 13:01:41;;;;;;;9.55;1.80;;;23.80;53.70;;;;;;4476736;32;20190;-71
2022/05/17 13:04:12;;;;;;;7.80;1.75;;;23.80;53.60;;;;;;4478788;31;20081;-71
2022/05/17 13:07:12;;;;;;;8.27;2.17;;;23.80;53.50;;;;;;4478770;31;20121;-71
2022/05/17 13:09:51;;;;;;;12.23;2.08;;;23.80;53.40;;;;;;4477110;32;20150;-70
2022/05/17 13:12:17;;;;;;;7.70;1.70;;;23.80;53.40;;;;;;4478642;31;20521;-71
2022/05/17 13:14:43;;;;;;;6.75;1.67;;;23.80;53.30;;;;;;4477316;32;20074;-72
2022/05/17 13:17:12;;;;;;;6.25;1.88;;;23.80;53.30;;;;;;4478460;31;20163;-71